Time;durP1;ratioP1;P1;durP2;ratioP2;P2;SDS_P1;SDS_P2;PMS_P1;PMS_P2;Temp;Humidity;BMP_temperature;BMP_pressure;BME280_temperature;BME280_humidity;BME280_pressure;Samples;Min_cycle;Max_cycle;Signal;HPM_P1;HPM_P2
2022/03/14 00:00:20;;;;;;;11.02;7.32;;;;;;;-2.48;63.09;98836.94;4175421;28;20059;-70
2022/03/14 00:02:21;;;;;;;14.30;8.10;;;;;;;-2.46;64.65;98842.88;4174352;28;20095;-70
2022/03/14 00:04:21;;;;;;;15.38;8.55;;;;;;;-2.47;64.87;98843.97;4173253;28;20040;-70
2022/03/14 00:06:22;;;;;;;15.10;8.35;;;;;;;-2.62;64.50;98838.69;4174899;28;20048;-70
2022/03/14 00:08:24;;;;;;;14.05;7.95;;;;;;;-2.74;64.56;98846.34;4174297;28;20041;-70
2022/03/14 00:10:24;;;;;;;13.43;8.20;;;;;;;-2.86;64.94;98841.28;4174779;28;20087;-70
2022/03/14 00:12:25;;;;;;;16.40;8.70;;;;;;;-2.95;64.88;98842.97;4174831;28;20045;-70
2022/03/14 00:14:25;;;;;;;17.45;8.57;;;;;;;-3.05;64.86;98848.47;4175577;28;20033;-70
2022/03/14 00:16:27;;;;;;;15.70;8.68;;;;;;;-3.09;64.83;98850.91;4174980;28;20045;-70
2022/03/14 00:18:32;;;;;;;16.65;8.50;;;;;;;-3.15;65.92;98855.53;4174330;28;20033;-70
2022/03/14 00:20:33;;;;;;;13.25;7.97;;;;;;;-3.18;65.89;98863.41;4177513;28;20068;-70
2022/03/14 00:22:36;;;;;;;14.02;7.68;;;;;;;-3.17;66.15;98863.13;4172710;28;20048;-70
2022/03/14 00:24:36;;;;;;;12.98;8.00;;;;;;;-3.16;65.37;98858.53;4174474;28;20188;-70
2022/03/14 00:26:37;;;;;;;18.98;9.00;;;;;;;-3.21;65.17;98864.78;4178427;28;20104;-70
2022/03/14 00:28:37;;;;;;;14.23;7.88;;;;;;;-3.23;65.08;98866.94;4176978;28;20294;-70
2022/03/14 00:30:38;;;;;;;15.55;9.52;;;;;;;-3.23;65.09;98876.97;4177211;28;20082;-70
2022/03/14 00:32:40;;;;;;;16.95;8.65;;;;;;;-3.24;64.29;98867.22;4178144;28;20457;-70
2022/03/14 00:34:41;;;;;;;14.97;8.27;;;;;;;-3.32;64.84;98870.50;4178185;28;20531;-70
2022/03/14 00:36:42;;;;;;;13.93;8.25;;;;;;;-3.32;64.79;98865.91;4178303;28;20271;-70
2022/03/14 00:38:43;;;;;;;13.95;8.25;;;;;;;-3.29;64.50;98876.19;4177798;28;20049;-70
2022/03/14 00:40:43;;;;;;;14.75;8.88;;;;;;;-3.28;64.71;98875.09;4177883;28;20345;-70
2022/03/14 00:42:43;;;;;;;16.77;7.78;;;;;;;-3.31;64.13;98874.81;4177698;28;20448;-70
2022/03/14 00:44:44;;;;;;;14.68;8.75;;;;;;;-3.39;63.83;98884.34;4177359;28;20058;-70
2022/03/14 00:46:45;;;;;;;15.85;8.27;;;;;;;-3.41;64.50;98889.22;4177060;28;20155;-70
2022/03/14 00:48:45;;;;;;;15.07;7.85;;;;;;;-3.51;65.28;98887.38;4178948;28;20353;-70
2022/03/14 00:50:46;;;;;;;14.45;8.55;;;;;;;-3.57;66.02;98876.84;4177523;28;20066;-70
2022/03/14 00:52:46;;;;;;;13.57;8.38;;;;;;;-3.59;65.82;98885.22;4178593;28;20045;-70
2022/03/14 00:54:46;;;;;;;13.48;8.63;;;;;;;-3.65;66.00;98890.91;4178310;28;20055;-70
2022/03/14 00:56:47;;;;;;;13.43;7.95;;;;;;;-3.64;66.21;98895.25;4176122;28;20179;-70
2022/03/14 00:58:47;;;;;;;11.70;7.55;;;;;;;-3.72;66.31;98892.03;4176862;28;20051;-70
2022/03/14 01:00:49;;;;;;;16.35;8.98;;;;;;;-3.69;66.05;98893.38;4177155;28;20536;-70
2022/03/14 01:02:50;;;;;;;14.50;7.93;;;;;;;-3.69;65.81;98894.19;4176981;28;20087;-70
2022/03/14 01:04:50;;;;;;;16.05;8.05;;;;;;;-3.73;66.05;98892.28;4178271;28;20803;-71
2022/03/14 01:06:50;;;;;;;14.52;7.70;;;;;;;-3.74;66.18;98896.91;4175031;28;20072;-71
2022/03/14 01:08:51;;;;;;;16.92;9.07;;;;;;;-3.73;65.56;98895.81;4179796;28;20041;-70
2022/03/14 01:10:51;;;;;;;14.63;8.75;;;;;;;-3.75;65.61;98910.69;4176667;28;20047;-70
2022/03/14 01:12:52;;;;;;;11.15;7.82;;;;;;;-3.79;65.96;98907.75;4177640;28;20517;-70
2022/03/14 01:14:52;;;;;;;11.35;6.97;;;;;;;-3.83;66.38;98895.84;4176210;28;20875;-70
2022/03/14 01:16:53;;;;;;;19.52;8.55;;;;;;;-3.78;66.43;98912.06;4176263;28;20149;-70
2022/03/14 01:18:53;;;;;;;12.75;7.90;;;;;;;-3.85;66.49;98903.41;4177722;28;20398;-70
2022/03/14 01:20:53;;;;;;;15.20;7.95;;;;;;;-3.85;66.32;98908.81;4177149;28;20507;-70
2022/03/14 01:22:54;;;;;;;11.77;7.50;;;;;;;-3.88;66.16;98905.88;4177742;28;20044;-70
2022/03/14 01:24:55;;;;;;;13.73;8.32;;;;;;;-3.90;66.79;98910.72;4176972;28;20055;-70
2022/03/14 01:26:55;;;;;;;15.05;7.80;;;;;;;-3.89;67.68;98910.44;4174454;28;20045;-70
2022/03/14 01:28:55;;;;;;;16.63;7.65;;;;;;;-3.87;67.92;98908.28;4177545;28;20142;-70
2022/03/14 01:30:57;;;;;;;16.35;7.88;;;;;;;-3.92;68.36;98913.69;4177494;28;20048;-70
2022/03/14 01:33:00;;;;;;;15.33;9.07;;;;;;;-3.97;68.30;98919.94;4176375;28;20049;-70
2022/03/14 01:35:00;;;;;;;14.27;7.45;;;;;;;-3.99;68.07;98924.78;4176739;28;20271;-70
2022/03/14 01:37:02;;;;;;;12.48;7.93;;;;;;;-4.01;68.13;98923.44;4174161;28;20049;-70
2022/03/14 01:39:04;;;;;;;13.13;8.57;;;;;;;-4.05;68.54;98916.97;4176443;28;20380;-71
2022/03/14 01:41:04;;;;;;;12.43;7.90;;;;;;;-4.03;69.46;98929.13;4177583;28;20055;-71
2022/03/14 01:43:05;;;;;;;14.82;7.50;;;;;;;-4.03;69.57;98920.22;4176633;28;20216;-71
2022/03/14 01:45:05;;;;;;;10.68;6.85;;;;;;;-4.06;69.89;98931.53;4177952;28;20517;-71
2022/03/14 01:47:06;;;;;;;14.90;7.10;;;;;;;-4.04;70.52;98929.41;4176353;28;20041;-71
2022/03/14 01:49:06;;;;;;;12.63;7.43;;;;;;;-4.08;70.41;98929.13;4175948;28;20556;-71
2022/03/14 01:51:07;;;;;;;10.48;6.72;;;;;;;-4.12;70.65;98924.53;4175485;28;20041;-71
2022/03/14 01:53:08;;;;;;;14.70;7.43;;;;;;;-4.13;70.42;98925.63;4176739;28;20046;-71
2022/03/14 01:55:09;;;;;;;14.73;8.80;;;;;;;-4.11;70.71;98923.47;4175521;28;20116;-71
2022/03/14 01:57:13;;;;;;;15.68;8.15;;;;;;;-4.14;70.23;98927.50;4178896;28;20495;-71
2022/03/14 01:59:13;;;;;;;13.68;7.28;;;;;;;-4.19;70.34;98938.31;4172603;28;20473;-70
2022/03/14 02:01:14;;;;;;;11.35;6.85;;;;;;;-4.22;70.55;98936.13;4176912;28;20126;-71
2022/03/14 02:03:14;;;;;;;15.95;7.53;;;;;;;-4.24;69.96;98936.41;4176060;28;20087;-71
2022/03/14 02:05:16;;;;;;;13.95;7.78;;;;;;;-4.28;70.61;98934.53;4177241;28;20048;-71
2022/03/14 02:07:16;;;;;;;17.20;8.18;;;;;;;-4.26;70.31;98944.00;4175811;28;20044;-71
2022/03/14 02:09:16;;;;;;;14.18;7.95;;;;;;;-4.26;69.86;98937.78;4177317;28;20048;-71
2022/03/14 02:11:17;;;;;;;13.70;7.75;;;;;;;-4.22;70.42;98948.84;4175577;28;20310;-71
2022/03/14 02:13:17;;;;;;;15.85;7.75;;;;;;;-4.20;70.07;98941.31;4175109;28;20037;-71
2022/03/14 02:15:18;;;;;;;13.50;7.55;;;;;;;-4.17;70.89;98946.16;4177288;28;20076;-71
2022/03/14 02:17:21;;;;;;;17.10;7.93;;;;;;;-4.19;71.21;98938.31;4174713;28;20048;-70
2022/03/14 02:19:22;;;;;;;15.23;7.65;;;;;;;-4.19;70.54;98927.50;4177074;28;20599;-71
2022/03/14 02:21:23;;;;;;;14.25;7.65;;;;;;;-4.19;69.97;98935.63;4175637;28;20044;-71
2022/03/14 02:23:23;;;;;;;11.60;7.88;;;;;;;-4.14;69.21;98943.72;4175458;28;20041;-71
2022/03/14 02:25:23;;;;;;;13.18;7.95;;;;;;;-4.14;70.60;98937.50;4176608;28;20035;-71
2022/03/14 02:27:24;;;;;;;13.77;7.57;;;;;;;-4.16;70.42;98942.38;4176105;28;20415;-71
2022/03/14 02:29:24;;;;;;;12.63;7.80;;;;;;;-4.16;69.92;98943.19;4190084;28;20097;-71
2022/03/14 02:31:24;;;;;;;14.48;7.57;;;;;;;-4.16;70.69;98951.28;4176345;28;20101;-71
2022/03/14 02:33:25;;;;;;;17.52;8.43;;;;;;;-4.17;70.46;98946.97;4171780;28;20124;-71
2022/03/14 02:35:25;;;;;;;14.40;7.63;;;;;;;-4.15;68.44;98949.38;4170248;28;20041;-71
2022/03/14 02:37:26;;;;;;;17.83;8.10;;;;;;;-4.16;69.33;98964.78;4169511;28;20045;-71
2022/03/14 02:39:26;;;;;;;13.70;7.50;;;;;;;-4.20;70.03;98961.03;4174900;28;20096;-71
2022/03/14 02:41:26;;;;;;;10.15;6.68;;;;;;;-4.15;69.46;98958.31;4175484;28;20064;-71
2022/03/14 02:43:27;;;;;;;12.35;7.47;;;;;;;-4.03;68.46;98960.75;4177098;28;20226;-71
2022/03/14 02:45:27;;;;;;;15.32;7.88;;;;;;;-3.98;66.51;98960.72;4175853;28;20109;-71
2022/03/14 02:47:28;;;;;;;13.57;7.72;;;;;;;-3.99;66.90;98962.63;4175056;28;20045;-70
2022/03/14 02:49:28;;;;;;;13.27;7.72;;;;;;;-4.02;66.63;98965.88;4176327;28;20037;-71
2022/03/14 02:51:29;;;;;;;14.75;8.57;;;;;;;-4.07;67.88;98971.28;4175786;28;20037;-71
2022/03/14 02:53:29;;;;;;;14.40;7.72;;;;;;;-4.10;67.71;98974.53;4176080;28;20095;-70
2022/03/14 02:55:30;;;;;;;12.43;7.40;;;;;;;-4.18;67.50;98977.78;4175676;28;20476;-71
2022/03/14 02:57:31;;;;;;;14.20;8.15;;;;;;;-4.18;67.30;98974.25;4174119;28;20124;-71
2022/03/14 02:59:32;;;;;;;15.40;8.07;;;;;;;-4.26;68.29;98978.31;4175600;28;20325;-70
2022/03/14 03:01:33;;;;;;;14.52;7.97;;;;;;;-4.30;68.21;98985.34;4176587;28;20086;-71
2022/03/14 03:03:34;;;;;;;23.45;8.48;;;;;;;-4.29;67.57;98976.97;4174871;28;20405;-71
2022/03/14 03:05:36;;;;;;;13.68;7.75;;;;;;;-4.24;66.30;98989.66;4175935;28;20159;-71
2022/03/14 03:07:37;;;;;;;14.57;7.25;;;;;;;-4.26;66.73;98987.22;4174026;28;20052;-71
2022/03/14 03:09:38;;;;;;;16.25;8.77;;;;;;;-4.30;67.32;98988.84;4173498;28;20110;-71
2022/03/14 03:11:40;;;;;;;15.80;8.65;;;;;;;-4.31;67.05;98986.41;4177434;28;20028;-71
2022/03/14 03:13:41;;;;;;;13.70;7.77;;;;;;;-4.26;66.94;98981.81;4175552;28;20040;-71
2022/03/14 03:15:42;;;;;;;14.07;7.75;;;;;;;-4.16;65.51;98991.81;4175398;28;20799;-71
2022/03/14 03:17:42;;;;;;;18.63;8.95;;;;;;;-4.09;66.42;98991.56;4174711;28;20127;-71
2022/03/14 03:19:43;;;;;;;16.77;8.25;;;;;;;-4.07;66.57;98986.69;4175458;28;20123;-71
2022/03/14 03:21:43;;;;;;;14.70;7.32;;;;;;;-4.06;66.69;98999.91;4175195;28;20033;-71
2022/03/14 03:23:44;;;;;;;18.95;8.27;;;;;;;-4.04;66.31;98995.09;4174190;28;20140;-70
2022/03/14 03:25:44;;;;;;;10.63;7.55;;;;;;;-4.01;66.97;99001.84;4173676;28;20440;-71
2022/03/14 03:27:45;;;;;;;14.50;7.90;;;;;;;-4.05;66.30;99001.56;4174096;28;20041;-71
2022/03/14 03:29:45;;;;;;;13.68;7.55;;;;;;;-4.06;66.72;99002.63;4174725;28;20048;-71
2022/03/14 03:31:45;;;;;;;11.80;7.72;;;;;;;-4.08;67.34;99012.09;4174152;28;20583;-71
2022/03/14 03:33:48;;;;;;;13.30;7.88;;;;;;;-4.12;66.42;99009.13;4175728;28;20098;-71
2022/03/14 03:35:48;;;;;;;12.70;7.45;;;;;;;-4.10;65.29;99006.16;4174489;28;20041;-71
2022/03/14 03:37:49;;;;;;;12.77;7.47;;;;;;;-4.16;66.08;99016.13;4172660;28;20045;-71
2022/03/14 03:39:49;;;;;;;16.40;7.90;;;;;;;-4.27;67.10;99018.03;4176126;28;20039;-71
2022/03/14 03:41:49;;;;;;;12.20;6.57;;;;;;;-4.36;67.50;99021.53;4175583;28;20746;-71
2022/03/14 03:43:50;;;;;;;14.45;7.80;;;;;;;-4.42;67.19;99023.41;4174845;28;20090;-71
2022/03/14 03:45:50;;;;;;;14.23;8.10;;;;;;;-4.54;68.58;99026.34;4176069;28;20238;-71
2022/03/14 03:47:50;;;;;;;14.30;7.65;;;;;;;-4.64;68.75;99028.19;4174668;28;20475;-71
2022/03/14 03:49:51;;;;;;;15.98;8.63;;;;;;;-4.67;70.42;99043.03;4175325;28;20646;-71
2022/03/14 03:51:51;;;;;;;19.80;8.40;;;;;;;-4.77;70.17;99032.22;4174842;28;20308;-71
2022/03/14 03:53:52;;;;;;;14.63;8.63;;;;;;;-4.75;70.21;99043.56;4174268;28;20050;-71
2022/03/14 03:55:52;;;;;;;18.70;7.90;;;;;;;-4.77;69.69;99037.59;4174070;28;20075;-71
2022/03/14 03:57:53;;;;;;;16.30;8.32;;;;;;;-4.75;69.78;99038.16;4173332;28;20079;-71
2022/03/14 03:59:53;;;;;;;16.13;8.27;;;;;;;-4.72;69.57;99050.31;4175971;28;20135;-71
2022/03/14 04:01:55;;;;;;;14.23;8.23;;;;;;;-4.76;70.50;99049.22;4178028;28;20068;-71
2022/03/14 04:03:55;;;;;;;16.33;8.23;;;;;;;-4.71;69.58;99051.94;4183651;28;20047;-71
2022/03/14 04:05:56;;;;;;;14.88;8.20;;;;;;;-4.68;69.84;99060.31;4187496;28;20052;-71
2022/03/14 04:08:02;;;;;;;13.95;7.35;;;;;;;-4.69;69.70;99060.59;4182895;28;20080;-70
2022/03/14 04:10:03;;;;;;;19.10;9.02;;;;;;;-4.72;70.59;99061.91;4174827;28;20045;-71
2022/03/14 04:12:03;;;;;;;16.08;8.57;;;;;;;-4.76;71.84;99065.41;4178287;28;20384;-71
2022/03/14 04:14:04;;;;;;;15.10;9.02;;;;;;;-4.77;72.16;99074.59;4174136;28;20031;-71
2022/03/14 04:16:04;;;;;;;17.65;8.00;;;;;;;-4.80;72.19;99067.81;4172731;28;20036;-71
2022/03/14 04:18:05;;;;;;;17.48;7.82;;;;;;;-4.83;71.74;99068.34;4171963;28;20044;-71
2022/03/14 04:20:08;;;;;;;12.30;7.88;;;;;;;-4.83;71.19;99069.16;4172608;28;20028;-71
2022/03/14 04:22:08;;;;;;;16.65;8.88;;;;;;;-4.84;72.65;99080.22;4172573;28;20037;-71
2022/03/14 04:24:08;;;;;;;19.50;8.48;;;;;;;-4.81;71.58;99075.09;4171737;28;20021;-71
2022/03/14 04:26:09;;;;;;;15.15;8.18;;;;;;;-4.84;71.69;99078.34;4171541;28;20028;-71
2022/03/14 04:28:11;;;;;;;15.88;8.25;;;;;;;-4.78;70.07;99087.28;4175209;28;20090;-71
2022/03/14 04:30:12;;;;;;;15.60;7.55;;;;;;;-4.75;70.15;99084.03;4172350;28;20415;-71
2022/03/14 04:32:12;;;;;;;13.73;7.82;;;;;;;-4.69;68.27;99087.59;4175826;28;20028;-71
2022/03/14 04:34:13;;;;;;;14.88;8.25;;;;;;;-4.69;69.50;99082.19;4175949;28;20453;-71
2022/03/14 04:36:14;;;;;;;18.05;8.10;;;;;;;-4.63;69.22;99084.66;4177750;28;20047;-71
2022/03/14 04:38:16;;;;;;;13.32;8.02;;;;;;;-4.67;69.75;99093.53;4174901;28;20029;-71
2022/03/14 04:40:17;;;;;;;12.88;8.73;;;;;;;-4.72;69.88;99093.50;4177057;28;20025;-71
2022/03/14 04:42:20;;;;;;;17.40;7.60;;;;;;;-4.76;69.78;99101.31;4177308;28;20039;-71
2022/03/14 04:44:21;;;;;;;11.98;7.53;;;;;;;-4.76;70.68;99087.81;4177032;28;20040;-71
2022/03/14 04:46:21;;;;;;;17.58;8.35;;;;;;;-4.71;72.52;99093.25;4176994;28;20045;-71
2022/03/14 04:48:23;;;;;;;13.75;8.30;;;;;;;-4.66;72.07;99103.25;4177238;28;20066;-71
2022/03/14 04:50:23;;;;;;;16.77;9.43;;;;;;;-4.66;73.49;99093.25;4177479;28;20123;-71
2022/03/14 04:52:24;;;;;;;14.70;8.48;;;;;;;-4.63;72.87;99092.75;4176870;28;20493;-71
2022/03/14 04:54:24;;;;;;;17.58;8.48;;;;;;;-4.64;73.39;99088.41;4177899;28;20699;-71
2022/03/14 04:56:25;;;;;;;16.20;8.07;;;;;;;-4.66;73.38;99105.94;4177090;28;20083;-71
2022/03/14 04:58:25;;;;;;;15.35;8.00;;;;;;;-4.70;72.41;99102.16;4177449;28;20127;-71
2022/03/14 05:00:27;;;;;;;13.27;7.15;;;;;;;-4.66;70.82;99104.06;4178553;28;20481;-71
2022/03/14 05:02:27;;;;;;;16.60;8.33;;;;;;;-4.64;71.55;99114.59;4176920;28;20246;-71
2022/03/14 05:04:28;;;;;;;11.68;7.63;;;;;;;-4.59;70.22;99110.03;4178319;28;20061;-71
2022/03/14 05:06:28;;;;;;;16.85;8.40;;;;;;;-4.58;69.85;99105.44;4175150;28;20024;-71
2022/03/14 05:08:29;;;;;;;14.50;8.00;;;;;;;-4.61;72.25;99114.09;4176920;28;20076;-71
2022/03/14 05:10:29;;;;;;;15.45;9.50;;;;;;;-4.63;72.13;99110.84;4178015;28;20052;-71
2022/03/14 05:12:34;;;;;;;18.20;8.70;;;;;;;-4.60;71.11;99115.72;4175493;28;20470;-70
2022/03/14 05:14:34;;;;;;;18.23;8.48;;;;;;;-4.59;71.29;99120.03;4176972;28;20532;-71
2022/03/14 05:16:35;;;;;;;15.88;8.50;;;;;;;-4.49;69.96;99120.06;4173165;28;20068;-71
2022/03/14 05:18:36;;;;;;;20.65;9.02;;;;;;;-4.48;71.80;99116.28;4178863;28;20052;-71
2022/03/14 05:20:37;;;;;;;14.88;8.30;;;;;;;-4.48;72.22;99126.28;4174932;28;20059;-71
2022/03/14 05:22:51;;;;;;;16.70;9.88;;;;;;;-4.38;69.77;99129.84;4176618;28;20148;-71
2022/03/14 05:24:52;;;;;;;18.13;10.18;;;;;;;-4.34;72.20;99130.13;4177502;28;20292;-71
2022/03/14 05:26:53;;;;;;;15.98;8.27;;;;;;;-4.28;70.56;99127.19;4174392;28;20048;-71
2022/03/14 05:28:54;;;;;;;16.40;9.67;;;;;;;-4.25;71.10;99137.44;4178361;28;20482;-71
2022/03/14 05:30:55;;;;;;;15.05;8.35;;;;;;;-4.24;72.36;99146.38;4177269;28;20056;-71
2022/03/14 05:32:56;;;;;;;18.45;9.40;;;;;;;-4.21;72.71;99158.56;4176030;28;20036;-71
2022/03/14 05:34:56;;;;;;;16.60;9.32;;;;;;;-4.21;72.73;99164.78;4176273;28;20090;-71
2022/03/14 05:36:58;;;;;;;18.40;8.70;;;;;;;-4.15;72.92;99166.38;4176374;28;20052;-71
2022/03/14 05:38:58;;;;;;;17.97;9.10;;;;;;;-4.11;72.65;99163.97;4177339;28;20486;-71
2022/03/14 05:40:58;;;;;;;18.73;8.98;;;;;;;-4.04;71.61;99157.25;4177608;28;20109;-71
2022/03/14 05:43:06;;;;;;;13.85;7.85;;;;;;;-3.98;71.18;99160.75;4176030;28;20155;-71
2022/03/14 05:45:08;;;;;;;14.13;7.88;;;;;;;-3.94;72.50;99159.16;4175488;28;20188;-71
2022/03/14 05:47:09;;;;;;;;;;;;;;;-3.88;70.19;99170.81;4175149;28;20361;-71
2022/03/14 05:49:09;;;;;;;14.10;7.60;;;;;;;-3.84;71.40;99175.41;4176165;28;19978;-71
2022/03/14 05:51:10;;;;;;;29.10;9.35;;;;;;;-3.79;70.40;99166.50;4176640;28;20282;-71
2022/03/14 05:53:12;;;;;;;22.02;10.68;;;;;;;-3.72;69.60;99173.28;4177081;28;20496;-71
2022/03/14 05:55:12;;;;;;;38.75;25.05;;;;;;;-3.68;72.96;99174.34;4176800;28;20037;-71
2022/03/14 05:57:12;;;;;;;33.22;19.42;;;;;;;-3.62;71.08;99171.69;4176353;28;20052;-71
2022/03/14 05:59:13;;;;;;;21.88;13.52;;;;;;;-3.59;70.29;99171.94;4177037;28;20044;-71
2022/03/14 06:01:13;;;;;;;19.60;12.23;;;;;;;-3.51;68.80;99181.41;4175536;28;20052;-71
2022/03/14 06:03:15;;;;;;;26.83;14.10;;;;;;;-3.47;68.24;99174.41;4176323;28;20033;-71
2022/03/14 06:05:18;;;;;;;25.15;12.40;;;;;;;-3.47;69.08;99175.22;4175997;28;20033;-71
2022/03/14 06:07:21;;;;;;;20.38;10.57;;;;;;;-3.40;70.98;99186.56;4175441;28;20520;-71
2022/03/14 06:09:25;;;;;;;15.75;8.63;;;;;;;-3.38;73.05;99180.91;4173506;28;20139;-71
2022/03/14 06:11:26;;;;;;;16.45;8.10;;;;;;;-3.40;73.29;99185.75;4172422;28;20037;-70
2022/03/14 06:13:27;;;;;;;17.02;8.32;;;;;;;-3.43;72.53;99181.69;4185750;28;20476;-70
2022/03/14 06:15:27;;;;;;;18.73;9.57;;;;;;;-3.39;71.27;99192.81;4173969;28;20124;-70
2022/03/14 06:17:28;;;;;;;22.05;10.85;;;;;;;-3.37;72.55;99196.06;4169859;28;20374;-70
2022/03/14 06:19:28;;;;;;;20.67;10.57;;;;;;;-3.33;71.01;99201.72;4168803;28;20108;-70
2022/03/14 06:21:29;;;;;;;23.83;10.10;;;;;;;-3.30;72.17;99206.63;4171996;28;20078;-70
2022/03/14 06:23:29;;;;;;;21.33;10.13;;;;;;;-3.29;71.33;99211.75;4173357;28;20040;-71
2022/03/14 06:25:30;;;;;;;17.27;9.18;;;;;;;-3.25;71.99;99209.31;4173767;28;20060;-71
2022/03/14 06:27:30;;;;;;;19.30;8.80;;;;;;;-3.23;72.70;99215.25;4169463;28;20040;-70
2022/03/14 06:29:31;;;;;;;34.67;9.10;;;;;;;-3.19;73.48;99214.47;4173766;28;20095;-70
2022/03/14 06:31:31;;;;;;;21.88;9.20;;;;;;;-3.15;72.27;99215.53;4174256;28;20037;-70
2022/03/14 06:33:31;;;;;;;19.38;8.88;;;;;;;-3.08;71.68;99225.28;4166536;28;20053;-71
2022/03/14 06:35:32;;;;;;;21.63;9.70;;;;;;;-3.03;71.70;99223.41;4169361;28;20037;-71
2022/03/14 06:37:33;;;;;;;19.27;9.95;;;;;;;-2.99;70.91;99224.47;4170221;28;20049;-71
2022/03/14 06:39:35;;;;;;;20.20;8.35;;;;;;;-2.92;70.69;99233.13;4173285;28;20537;-71
2022/03/14 06:41:38;;;;;;;31.30;13.27;;;;;;;-2.87;71.08;99232.34;4168990;28;20398;-71
2022/03/14 06:43:39;;;;;;;34.30;14.93;;;;;;;-2.79;69.47;99236.41;4168701;28;20048;-71
2022/03/14 06:45:39;;;;;;;32.42;15.60;;;;;;;-2.75;70.34;99232.84;4176241;28;20040;-70
2022/03/14 06:47:40;;;;;;;26.27;11.63;;;;;;;-2.69;70.77;99242.59;4172331;28;20029;-70
2022/03/14 06:49:42;;;;;;;26.60;14.02;;;;;;;-2.64;69.15;99225.53;4173465;28;20048;-71
2022/03/14 06:51:42;;;;;;;26.33;14.95;;;;;;;-2.57;68.68;99231.47;4175042;28;20375;-71
2022/03/14 06:53:43;;;;;;;22.02;12.75;;;;;;;-2.50;67.50;99239.31;4166906;28;20048;-71
2022/03/14 06:55:43;;;;;;;22.65;12.95;;;;;;;-2.44;67.79;99247.16;4175940;28;20092;-71
2022/03/14 06:57:44;;;;;;;28.75;12.68;;;;;;;-2.38;68.00;99246.09;4175060;28;20080;-71
2022/03/14 06:59:45;;;;;;;31.85;15.50;;;;;;;-2.30;69.05;99250.94;4172746;28;20041;-71
2022/03/14 07:01:45;;;;;;;32.55;15.50;;;;;;;-2.23;68.98;99250.66;4170430;28;20224;-71
2022/03/14 07:03:46;;;;;;;27.83;14.85;;;;;;;-2.18;68.15;99252.53;4169616;28;20373;-71
2022/03/14 07:05:46;;;;;;;29.42;13.10;;;;;;;-2.08;68.38;99258.72;4170128;28;20262;-71
2022/03/14 07:07:47;;;;;;;49.67;22.15;;;;;;;-2.01;67.75;99264.66;4167109;28;20060;-71
2022/03/14 07:09:48;;;;;;;65.50;24.88;;;;;;;-1.93;68.31;99271.44;4167900;28;20048;-71
2022/03/14 07:11:54;;;;;;;52.25;20.90;;;;;;;-1.87;66.79;99270.34;4167610;28;20649;-71
2022/03/14 07:13:54;;;;;;;42.72;17.45;;;;;;;-1.75;67.04;99273.53;4165178;28;20310;-71
2022/03/14 07:15:54;;;;;;;39.17;16.65;;;;;;;-1.67;66.77;99280.28;4165352;28;20537;-71
2022/03/14 07:17:55;;;;;;;39.15;17.55;;;;;;;-1.55;66.35;99269.09;4170266;28;20037;-70
2022/03/14 07:19:55;;;;;;;42.08;16.33;;;;;;;-1.47;67.28;99276.66;4169656;28;20094;-71
2022/03/14 07:21:56;;;;;;;23.63;12.50;;;;;;;-1.37;70.85;99278.50;4174460;28;20407;-71
2022/03/14 07:23:56;;;;;;;24.38;10.95;;;;;;;-1.31;70.67;99270.06;4169309;28;20049;-71
2022/03/14 07:25:56;;;;;;;28.98;12.77;;;;;;;-1.23;67.88;99272.19;4176667;28;20044;-71
2022/03/14 07:28:05;;;;;;;20.83;10.73;;;;;;;-1.15;69.67;99263.44;4168940;28;20045;-71
2022/03/14 07:30:06;;;;;;;36.72;17.85;;;;;;;-1.05;70.98;99267.19;4169370;28;20056;-71
2022/03/14 07:32:07;;;;;;;26.45;12.52;;;;;;;-0.96;70.70;99263.56;4169316;28;20025;-71
2022/03/14 07:34:08;;;;;;;21.50;11.55;;;;;;;-0.86;70.28;99274.34;4169101;28;20358;-71
2022/03/14 07:36:08;;;;;;;21.80;10.48;;;;;;;-0.77;70.09;99271.84;4169355;28;20199;-71
2022/03/14 07:38:10;;;;;;;26.40;12.90;;;;;;;-0.71;66.40;99283.47;4168618;28;20070;-71
2022/03/14 07:40:12;;;;;;;30.40;14.25;;;;;;;-0.63;65.68;99272.81;4169287;28;20028;-71
2022/03/14 07:42:12;;;;;;;25.10;13.63;;;;;;;-0.55;66.11;99286.88;4169147;28;20043;-71
2022/03/14 07:44:13;;;;;;;21.08;11.65;;;;;;;-0.47;68.35;99292.53;4169174;28;20780;-71
2022/03/14 07:46:13;;;;;;;24.25;12.13;;;;;;;-0.41;65.99;99290.56;4168677;28;20025;-71
2022/03/14 07:48:13;;;;;;;19.85;10.60;;;;;;;-0.33;67.31;99290.75;4164807;28;20039;-71
2022/03/14 07:50:15;;;;;;;16.00;9.75;;;;;;;-0.26;67.38;99284.97;4169163;28;20028;-71
2022/03/14 07:52:15;;;;;;;27.17;10.80;;;;;;;-0.21;66.39;99276.78;4166726;28;20558;-71
2022/03/14 07:54:16;;;;;;;17.42;9.30;;;;;;;-0.12;66.70;99272.31;4174306;28;20029;-71
2022/03/14 07:56:16;;;;;;;16.70;9.80;;;;;;;0.06;63.20;99276.19;4169583;28;20149;-71
2022/03/14 07:58:16;;;;;;;19.08;9.90;;;;;;;0.23;64.70;99275.72;4180815;28;20068;-70
2022/03/14 08:00:18;;;;;;;24.30;9.75;;;;;;;0.40;63.86;99281.50;4170331;28;20069;-70
2022/03/14 08:02:20;;;;;;;18.02;9.15;;;;;;;0.54;64.81;99276.97;4170922;28;20484;-70
2022/03/14 08:04:20;;;;;;;17.80;8.80;;;;;;;0.72;63.95;99286.25;4179385;28;20021;-70
2022/03/14 08:06:22;;;;;;;14.98;8.40;;;;;;;0.82;63.11;99286.09;4169219;28;20059;-70
2022/03/14 08:08:23;;;;;;;18.05;9.10;;;;;;;0.92;62.62;99287.91;4170648;28;20465;-70
2022/03/14 08:10:23;;;;;;;16.73;8.90;;;;;;;1.07;62.81;99297.75;4174958;28;20099;-70
2022/03/14 08:12:24;;;;;;;16.80;9.30;;;;;;;1.20;62.84;99293.47;4179083;28;20369;-70
2022/03/14 08:14:25;;;;;;;15.75;10.10;;;;;;;1.36;63.15;99294.84;4114462;28;20037;-70
2022/03/14 08:16:25;;;;;;;21.23;10.23;;;;;;;1.55;63.31;99292.06;4164959;28;20049;-70
2022/03/14 08:18:26;;;;;;;16.75;8.48;;;;;;;1.78;63.18;99296.59;4165754;28;20076;-70
2022/03/14 08:20:27;;;;;;;17.35;8.82;;;;;;;1.97;63.21;99299.25;4172062;28;20069;-70
2022/03/14 08:22:28;;;;;;;14.57;8.95;;;;;;;2.22;63.63;99295.22;4168619;28;20288;-70
2022/03/14 08:24:28;;;;;;;14.57;8.30;;;;;;;2.74;64.98;99298.53;4174329;28;20055;-70
2022/03/14 08:26:29;;;;;;;20.92;9.75;;;;;;;3.37;64.55;99306.63;4173287;28;20704;-70
2022/03/14 08:28:31;;;;;;;19.20;10.40;;;;;;;3.99;61.73;99288.69;4174968;28;20301;-70
2022/03/14 08:30:32;;;;;;;16.40;9.95;;;;;;;4.59;60.19;99286.16;4172686;28;20654;-70
2022/03/14 08:32:34;;;;;;;15.13;7.88;;;;;;;5.01;59.19;99287.34;4176928;28;20045;-70
2022/03/14 08:34:35;;;;;;;13.30;7.93;;;;;;;5.27;57.81;99297.53;4179828;28;20056;-70
2022/03/14 08:36:40;;;;;;;17.55;9.02;;;;;;;5.61;57.46;99297.50;4165608;28;20583;-70
2022/03/14 08:38:40;;;;;;;15.48;8.88;;;;;;;5.80;56.16;99297.16;4172722;28;20669;-70
2022/03/14 08:40:41;;;;;;;15.65;8.23;;;;;;;5.90;55.48;99301.50;4176064;28;20058;-71
2022/03/14 08:42:43;;;;;;;15.55;9.10;;;;;;;5.94;55.36;99305.22;4170618;28;20409;-71
2022/03/14 08:44:43;;;;;;;15.00;8.45;;;;;;;6.05;55.80;99297.47;4175537;28;20036;-70
2022/03/14 08:46:44;;;;;;;14.43;8.85;;;;;;;6.13;55.45;99304.88;4176436;28;20047;-70
2022/03/14 08:48:44;;;;;;;15.05;8.55;;;;;;;6.19;55.05;99307.09;4180244;28;20049;-70
2022/03/14 08:50:45;;;;;;;15.68;8.35;;;;;;;6.33;54.40;99320.63;4173040;28;20372;-70
2022/03/14 08:52:48;;;;;;;14.88;8.93;;;;;;;6.40;54.02;99309.13;4171906;28;20052;-71
2022/03/14 08:54:49;;;;;;;14.30;8.70;;;;;;;6.36;54.12;99322.69;4171433;28;20047;-70
2022/03/14 08:56:50;;;;;;;11.57;7.28;;;;;;;6.46;53.48;99321.56;4168871;28;20148;-70
2022/03/14 08:58:50;;;;;;;14.32;8.35;;;;;;;6.54;53.09;99323.44;4171516;28;20071;-70
2022/03/14 09:00:51;;;;;;;11.80;7.50;;;;;;;6.63;53.01;99326.97;4172013;28;20036;-70
2022/03/14 09:02:52;;;;;;;13.20;8.25;;;;;;;6.64;53.37;99336.03;4183431;28;20049;-71
2022/03/14 09:04:52;;;;;;;11.23;7.18;;;;;;;6.66;53.13;99325.50;4172710;28;20263;-71
2022/03/14 09:06:53;;;;;;;13.57;7.95;;;;;;;6.68;53.00;99337.75;4184668;28;20131;-71
2022/03/14 09:08:53;;;;;;;12.82;8.23;;;;;;;6.71;52.81;99347.31;4172022;28;20041;-71
2022/03/14 09:10:55;;;;;;;16.30;9.27;;;;;;;6.67;52.84;99347.16;4170031;28;20091;-71
2022/03/14 09:12:56;;;;;;;12.55;8.05;;;;;;;6.63;53.35;99359.16;4171377;28;20053;-71
2022/03/14 09:14:56;;;;;;;15.63;8.27;;;;;;;6.57;53.45;99353.03;4182456;28;20052;-71
2022/03/14 09:16:58;;;;;;;16.13;8.18;;;;;;;6.51;53.38;99359.03;4177591;28;20088;-71
2022/03/14 09:18:58;;;;;;;17.48;8.60;;;;;;;6.52;52.39;99360.63;4171165;28;20106;-71
2022/03/14 09:20:59;;;;;;;16.92;8.88;;;;;;;6.58;51.57;99353.84;4178281;28;20045;-71